Time;durP1;ratioP1;P1;durP2;ratioP2;P2;SDS_P1;SDS_P2;PMS_P1;PMS_P2;Temp;Humidity;BMP_temperature;BMP_pressure;BME280_temperature;BME280_humidity;BME280_pressure;Samples;Min_cycle;Max_cycle;Signal;HPM_P1;HPM_P2
2021/12/07 00:00:19;;;;;;;4.30;3.90;;;1.90;99.90;;;;;;476155;250;28007;-74
2021/12/07 00:02:20;;;;;;;3.20;3.00;;;1.90;99.90;;;;;;476163;250;28155;-74
2021/12/07 00:04:21;;;;;;;3.72;3.42;;;1.90;99.90;;;;;;476175;250;27937;-74
2021/12/07 00:06:22;;;;;;;4.32;3.92;;;1.90;99.90;;;;;;476160;250;27529;-74
2021/12/07 00:08:25;;;;;;;3.40;2.90;;;1.90;99.90;;;;;;476148;250;27541;-74
2021/12/07 00:10:25;;;;;;;3.45;3.15;;;1.90;99.90;;;;;;476107;250;27605;-74
2021/12/07 00:12:33;;;;;;;3.90;3.60;;;1.90;99.90;;;;;;476122;250;27520;-74
2021/12/07 00:14:34;;;;;;;5.25;3.40;;;1.90;99.90;;;;;;475817;250;27493;-74
2021/12/07 00:16:29;;;;;;;4.00;3.70;;;1.90;99.90;;;;;;475850;250;27555;-74
2021/12/07 00:18:30;;;;;;;3.80;3.50;;;1.90;99.90;;;;;;476159;250;27556;-75
2021/12/07 00:20:31;;;;;;;3.53;3.22;;;1.90;99.90;;;;;;476152;250;27633;-73
2021/12/07 00:22:32;;;;;;;4.32;3.92;;;1.90;99.90;;;;;;476160;250;27955;-74
2021/12/07 00:24:34;;;;;;;4.05;3.70;;;1.90;99.90;;;;;;476153;250;27636;-75
2021/12/07 00:26:35;;;;;;;3.90;3.50;;;2.00;99.90;;;;;;476134;250;27978;-75
2021/12/07 00:28:36;;;;;;;4.40;4.00;;;2.00;99.90;;;;;;476119;250;27988;-75
2021/12/07 00:30:37;;;;;;;3.62;3.33;;;2.00;99.90;;;;;;476132;250;28003;-74
2021/12/07 00:32:43;;;;;;;3.40;3.10;;;2.00;99.90;;;;;;476142;250;28096;-74
2021/12/07 00:34:55;;;;;;;3.42;3.12;;;2.00;99.90;;;;;;475901;250;27627;-74
2021/12/07 00:36:45;;;;;;;3.62;3.33;;;2.00;99.90;;;;;;475341;250;27524;-74
2021/12/07 00:38:42;;;;;;;3.65;3.35;;;2.00;99.90;;;;;;476034;250;27568;-74
2021/12/07 00:40:44;;;;;;;4.97;3.40;;;2.00;99.90;;;;;;476151;250;27652;-75
2021/12/07 00:42:45;;;;;;;3.72;3.42;;;2.00;99.90;;;;;;476175;250;27562;-74
2021/12/07 00:44:46;;;;;;;3.87;3.50;;;2.00;99.90;;;;;;476162;250;27563;-74
2021/12/07 00:46:47;;;;;;;3.28;3.03;;;2.10;99.90;;;;;;476140;250;27535;-75
2021/12/07 00:48:49;;;;;;;3.90;3.50;;;2.00;99.90;;;;;;476145;250;27593;-74
2021/12/07 00:50:50;;;;;;;4.25;3.53;;;2.10;99.90;;;;;;476177;250;27507;-74
2021/12/07 00:52:51;;;;;;;3.20;3.00;;;2.10;99.90;;;;;;476139;250;27529;-75
2021/12/07 00:54:52;;;;;;;3.97;3.50;;;2.10;99.90;;;;;;476154;250;27945;-74
2021/12/07 00:56:54;;;;;;;3.55;3.25;;;2.10;99.90;;;;;;476167;250;28155;-75
2021/12/07 00:58:55;;;;;;;3.35;3.10;;;2.10;99.90;;;;;;476158;250;28080;-74
2021/12/07 01:00:56;;;;;;;3.20;2.90;;;2.10;99.90;;;;;;476166;250;27987;-74
2021/12/07 01:02:57;;;;;;;3.40;3.10;;;2.20;99.90;;;;;;476177;250;27564;-73
2021/12/07 01:05:08;;;;;;;3.80;3.40;;;2.20;99.90;;;;;;476184;250;27522;-73
2021/12/07 01:07:11;;;;;;;3.42;3.12;;;2.20;99.90;;;;;;475705;250;27545;-73
2021/12/07 01:09:21;;;;;;;3.40;3.10;;;2.20;99.90;;;;;;475612;250;27558;-73
2021/12/07 01:25:11;;;;;;;4.35;3.25;;;2.30;99.90;;;;;;476186;250;27525;-74
2021/12/07 01:27:12;;;;;;;3.37;3.05;;;2.30;99.90;;;;;;476161;250;27537;-74
2021/12/07 01:29:16;;;;;;;3.70;3.37;;;2.30;99.90;;;;;;476194;250;27647;-74
2021/12/07 01:31:47;;;;;;;3.53;3.22;;;2.30;99.90;;;;;;476087;250;27519;-74
2021/12/07 01:33:38;;;;;;;2.95;2.75;;;2.30;99.90;;;;;;475437;250;28047;-74
2021/12/07 01:37:38;;;;;;;3.40;3.10;;;2.40;99.90;;;;;;473551;250;27967;-74
2021/12/07 01:50:48;;;;;;;2.60;2.40;;;2.30;99.90;;;;;;476196;250;27548;-73
2021/12/07 01:52:52;;;;;;;2.83;2.62;;;2.30;99.90;;;;;;475466;250;27671;-73
2021/12/07 01:59:35;;;;;;;2.12;2.03;;;2.20;99.90;;;;;;476196;250;28052;-74
2021/12/07 02:01:36;;;;;;;2.37;2.17;;;2.10;99.90;;;;;;476147;250;27606;-74
2021/12/07 02:03:39;;;;;;;1.98;1.87;;;2.10;99.90;;;;;;476152;250;27489;-73
2021/12/07 02:05:39;;;;;;;1.80;1.70;;;2.10;99.90;;;;;;476091;250;28118;-74
2021/12/07 02:07:40;;;;;;;1.70;1.60;;;2.10;99.90;;;;;;476097;250;27941;-73
2021/12/07 02:09:44;;;;;;;1.35;1.35;;;2.10;99.90;;;;;;476106;250;28075;-73
2021/12/07 02:11:49;;;;;;;1.85;1.75;;;2.10;99.90;;;;;;475995;250;28032;-74
2021/12/07 02:15:45;;;;;;;1.40;1.40;;;2.10;99.90;;;;;;476107;250;27539;-74
2021/12/07 02:17:46;;;;;;;1.65;1.55;;;2.00;99.90;;;;;;476126;250;27589;-74
2021/12/07 02:19:47;;;;;;;1.50;1.50;;;2.00;99.90;;;;;;476167;250;27605;-74
2021/12/07 02:21:49;;;;;;;1.95;1.85;;;2.00;99.90;;;;;;476172;250;27603;-74
2021/12/07 02:23:50;;;;;;;1.80;1.70;;;2.00;99.90;;;;;;476183;250;27660;-74
2021/12/07 02:25:51;;;;;;;1.67;1.60;;;2.00;99.90;;;;;;476166;250;27566;-74
2021/12/07 02:27:53;;;;;;;1.75;1.70;;;2.00;99.90;;;;;;476156;250;27521;-74
2021/12/07 02:29:54;;;;;;;3.28;1.92;;;2.00;99.90;;;;;;476180;250;27497;-73
2021/12/07 02:31:55;;;;;;;1.75;1.65;;;2.00;99.90;;;;;;476165;250;27580;-73
2021/12/07 02:33:56;;;;;;;1.52;1.52;;;2.10;99.90;;;;;;476143;250;27977;-74
2021/12/07 02:35:57;;;;;;;2.37;1.70;;;2.10;99.90;;;;;;476137;250;28003;-74
2021/12/07 02:37:59;;;;;;;1.98;1.87;;;2.10;99.90;;;;;;476166;250;28654;-74
2021/12/07 02:40:00;;;;;;;1.83;1.73;;;2.20;99.90;;;;;;476187;250;28135;-73
2021/12/07 02:42:01;;;;;;;1.70;1.60;;;2.20;99.90;;;;;;476193;250;27529;-74
2021/12/07 02:44:05;;;;;;;1.90;1.80;;;2.30;99.90;;;;;;476143;250;27484;-74
2021/12/07 02:46:04;;;;;;;1.90;1.80;;;2.30;99.90;;;;;;476034;250;27642;-74
2021/12/07 02:48:05;;;;;;;2.05;1.95;;;2.30;99.90;;;;;;476183;250;27553;-74
2021/12/07 02:50:06;;;;;;;2.25;2.05;;;2.40;99.90;;;;;;476208;250;27574;-74
2021/12/07 02:52:07;;;;;;;6.30;2.10;;;2.30;99.90;;;;;;476165;250;27558;-74
2021/12/07 02:54:09;;;;;;;2.00;1.90;;;2.40;99.90;;;;;;476184;250;27513;-74
2021/12/07 02:56:10;;;;;;;5.03;2.22;;;2.30;99.90;;;;;;476190;250;27544;-74
2021/12/07 02:58:11;;;;;;;2.10;2.00;;;2.30;99.90;;;;;;476225;250;27557;-74
2021/12/07 03:00:16;;;;;;;2.45;2.25;;;2.30;99.90;;;;;;476173;250;27493;-74
2021/12/07 03:02:15;;;;;;;1.95;1.85;;;2.20;99.90;;;;;;475983;250;27546;-74
2021/12/07 03:04:17;;;;;;;1.75;1.65;;;2.20;99.90;;;;;;476086;250;28088;-74
2021/12/07 03:26:29;;;;;;;1.80;1.70;;;2.20;99.90;;;;;;476146;250;27508;-75
2021/12/07 03:28:31;;;;;;;1.90;1.80;;;2.20;99.90;;;;;;476139;250;27536;-73
2021/12/07 03:30:32;;;;;;;1.80;1.70;;;2.10;99.90;;;;;;476178;250;28076;-74
2021/12/07 03:32:33;;;;;;;1.90;1.80;;;2.10;99.90;;;;;;476170;250;27940;-74
2021/12/07 03:34:34;;;;;;;2.08;1.75;;;2.10;99.90;;;;;;476165;250;28103;-74
2021/12/07 03:36:36;;;;;;;2.10;1.90;;;2.00;99.90;;;;;;476189;250;27963;-74
2021/12/07 03:38:37;;;;;;;2.25;1.90;;;2.00;99.90;;;;;;476182;250;27504;-73
2021/12/07 03:40:38;;;;;;;3.67;2.20;;;2.00;99.90;;;;;;476153;250;27554;-74
2021/12/07 03:42:39;;;;;;;1.83;1.73;;;1.90;99.90;;;;;;476119;250;27616;-73
2021/12/07 03:44:41;;;;;;;1.98;1.87;;;1.90;99.90;;;;;;476150;250;27535;-74
2021/12/07 03:46:42;;;;;;;1.90;1.80;;;1.90;99.90;;;;;;476160;250;27605;-74
2021/12/07 03:48:43;;;;;;;3.58;1.87;;;1.90;99.90;;;;;;476166;250;27500;-74
2021/12/07 03:50:44;;;;;;;1.70;1.60;;;1.90;99.90;;;;;;476092;250;27639;-73
2021/12/07 03:52:46;;;;;;;2.22;2.08;;;2.00;99.90;;;;;;475735;250;27609;-73
2021/12/07 03:54:47;;;;;;;1.60;1.60;;;2.00;99.90;;;;;;475874;250;27568;-73
2021/12/07 03:56:48;;;;;;;1.77;1.67;;;2.10;99.90;;;;;;475977;250;27573;-73
2021/12/07 03:58:49;;;;;;;1.92;1.75;;;2.10;99.90;;;;;;476013;250;27977;-73
2021/12/07 04:00:51;;;;;;;2.42;1.62;;;2.20;99.90;;;;;;476175;250;28036;-73
2021/12/07 04:02:53;;;;;;;1.60;1.50;;;2.30;99.90;;;;;;476165;250;27491;-73
2021/12/07 04:04:59;;;;;;;1.48;1.45;;;2.30;99.90;;;;;;476109;250;27498;-73
2021/12/07 04:06:54;;;;;;;2.58;1.90;;;2.30;99.90;;;;;;475856;250;27576;-73
2021/12/07 04:08:56;;;;;;;1.65;1.55;;;2.30;99.90;;;;;;476158;250;27500;-74
2021/12/07 04:10:57;;;;;;;3.17;2.10;;;2.30;99.90;;;;;;476143;250;27661;-73
2021/12/07 04:12:58;;;;;;;1.60;1.50;;;2.40;99.90;;;;;;476123;250;27519;-73
2021/12/07 04:14:59;;;;;;;1.60;1.50;;;2.40;99.90;;;;;;476177;250;27507;-73
2021/12/07 04:17:01;;;;;;;6.05;2.20;;;2.40;99.90;;;;;;476193;250;27565;-74
2021/12/07 04:19:02;;;;;;;2.03;1.92;;;2.40;99.90;;;;;;476184;250;27501;-74
2021/12/07 04:21:03;;;;;;;2.40;2.20;;;2.40;99.90;;;;;;476170;250;27651;-74
2021/12/07 04:23:04;;;;;;;2.85;2.50;;;2.40;99.90;;;;;;476163;250;28771;-74
2021/12/07 04:25:06;;;;;;;2.40;2.20;;;2.50;99.90;;;;;;476207;250;27963;-75
2021/12/07 04:27:07;;;;;;;3.87;2.47;;;2.40;99.90;;;;;;476142;250;28101;-74
2021/12/07 04:29:08;;;;;;;2.53;2.33;;;2.40;99.90;;;;;;476172;250;27505;-74
2021/12/07 04:31:09;;;;;;;5.07;2.60;;;2.30;99.90;;;;;;476156;250;27529;-74
2021/12/07 04:33:11;;;;;;;3.72;2.30;;;2.40;99.90;;;;;;476195;250;27600;-74
2021/12/07 04:35:12;;;;;;;3.78;2.22;;;2.40;99.90;;;;;;476180;250;27490;-74
2021/12/07 04:37:13;;;;;;;6.35;2.78;;;2.40;99.90;;;;;;476225;250;27603;-74
2021/12/07 04:39:14;;;;;;;3.53;2.40;;;2.40;99.90;;;;;;476188;250;28020;-75
2021/12/07 04:41:16;;;;;;;2.80;2.50;;;2.40;99.90;;;;;;476171;250;27560;-74
2021/12/07 04:43:17;;;;;;;4.30;2.50;;;2.50;99.90;;;;;;476222;250;27620;-75
2021/12/07 04:45:51;;;;;;;6.80;2.40;;;2.50;99.90;;;;;;476201;250;27595;-75
2021/12/07 04:50:28;;;;;;;2.78;2.37;;;2.50;99.90;;;;;;476178;250;28031;-73
2021/12/07 04:59:03;;;;;;;7.28;2.72;;;2.20;99.90;;;;;;476151;250;27611;-75
2021/12/07 05:01:09;;;;;;;6.65;2.00;;;2.10;99.90;;;;;;476199;250;28062;-74
2021/12/07 05:03:10;;;;;;;4.25;1.92;;;2.00;99.90;;;;;;475939;250;28174;-75
2021/12/07 05:05:08;;;;;;;2.35;1.75;;;2.00;99.90;;;;;;475952;250;27942;-75
2021/12/07 05:07:15;;;;;;;3.03;1.90;;;1.90;99.90;;;;;;476109;250;27539;-74
2021/12/07 05:09:38;;;;;;;2.45;2.08;;;1.90;99.90;;;;;;475826;250;27608;-74
2021/12/07 05:13:35;;;;;;;2.47;2.00;;;1.80;99.90;;;;;;476166;250;27510;-74
2021/12/07 05:16:29;;;;;;;1.60;1.50;;;1.80;99.90;;;;;;475877;250;27522;-74
2021/12/07 05:18:34;;;;;;;2.67;1.90;;;1.80;99.90;;;;;;474792;250;27564;-74
2021/12/07 05:24:19;;;;;;;1.40;1.40;;;1.70;99.90;;;;;;476198;250;27944;-74
2021/12/07 05:37:51;;;;;;;1.80;1.70;;;1.50;99.90;;;;;;476153;250;27536;-74
2021/12/07 05:39:49;;;;;;;3.97;2.00;;;1.60;99.90;;;;;;476035;250;27951;-73
2021/12/07 05:41:50;;;;;;;4.82;2.60;;;1.60;99.90;;;;;;476176;250;28084;-74
2021/12/07 05:43:52;;;;;;;2.00;1.90;;;1.60;99.90;;;;;;476181;250;28067;-74
2021/12/07 05:45:54;;;;;;;2.20;2.08;;;1.60;99.90;;;;;;476176;250;27585;-73
2021/12/07 05:47:54;;;;;;;2.30;2.10;;;1.60;99.90;;;;;;476174;250;27543;-73
2021/12/07 05:49:55;;;;;;;3.28;2.42;;;1.60;99.90;;;;;;476168;250;27590;-74
2021/12/07 05:51:57;;;;;;;2.22;2.00;;;1.70;99.90;;;;;;476148;250;27620;-74
2021/12/07 05:53:58;;;;;;;2.30;1.98;;;1.70;99.90;;;;;;476164;250;27581;-73
2021/12/07 05:55:59;;;;;;;2.70;2.20;;;1.80;99.90;;;;;;476184;250;27695;-74
2021/12/07 05:58:00;;;;;;;4.10;2.58;;;1.80;99.90;;;;;;476194;250;27561;-73
2021/12/07 06:00:02;;;;;;;9.00;2.90;;;1.90;99.90;;;;;;476183;250;27495;-74
2021/12/07 06:02:03;;;;;;;5.82;2.70;;;1.90;99.90;;;;;;476160;250;27618;-74
2021/12/07 06:04:04;;;;;;;4.68;2.67;;;2.00;99.90;;;;;;476153;250;27532;-74
2021/12/07 06:06:05;;;;;;;6.80;2.80;;;2.10;99.90;;;;;;476170;250;27544;-74
2021/12/07 06:08:07;;;;;;;5.45;2.45;;;2.10;99.90;;;;;;476173;250;28124;-74
2021/12/07 06:10:08;;;;;;;5.60;3.15;;;2.20;99.90;;;;;;476145;250;27951;-74
2021/12/07 06:12:09;;;;;;;5.00;2.62;;;2.20;99.90;;;;;;476166;250;28038;-74
2021/12/07 06:14:11;;;;;;;4.85;2.92;;;2.30;99.90;;;;;;476185;250;27966;-74
2021/12/07 06:16:14;;;;;;;6.12;3.10;;;2.30;99.90;;;;;;476149;250;27505;-74
2021/12/07 06:18:13;;;;;;;4.55;3.30;;;2.30;99.90;;;;;;476050;250;27544;-74
2021/12/07 06:20:14;;;;;;;7.53;3.45;;;2.30;99.90;;;;;;476179;250;27594;-74
2021/12/07 06:22:15;;;;;;;7.22;2.83;;;2.40;99.90;;;;;;476161;250;27543;-74
2021/12/07 06:24:17;;;;;;;6.00;3.10;;;2.40;99.90;;;;;;476169;250;27575;-74
2021/12/07 06:26:18;;;;;;;7.10;2.50;;;2.40;99.90;;;;;;476173;250;27521;-74
2021/12/07 06:28:19;;;;;;;4.65;2.78;;;2.40;99.90;;;;;;476184;250;27528;-75
2021/12/07 06:30:20;;;;;;;6.45;3.10;;;2.40;99.90;;;;;;476185;250;27578;-74
2021/12/07 06:32:22;;;;;;;6.75;3.45;;;2.40;99.90;;;;;;476174;250;27621;-74
2021/12/07 06:34:23;;;;;;;4.12;3.05;;;2.40;99.90;;;;;;476186;250;28448;-75
2021/12/07 06:36:24;;;;;;;6.03;3.62;;;2.40;99.90;;;;;;476197;250;27926;-74
2021/12/07 06:38:25;;;;;;;5.65;3.33;;;2.40;99.90;;;;;;476156;250;28045;-73
2021/12/07 06:40:27;;;;;;;7.62;3.40;;;2.40;99.90;;;;;;476137;250;28022;-74
2021/12/07 06:42:28;;;;;;;10.23;3.20;;;2.50;99.90;;;;;;476151;250;28106;-74
2021/12/07 06:44:29;;;;;;;8.73;3.03;;;2.40;99.90;;;;;;476192;250;27559;-74
2021/12/07 06:46:30;;;;;;;6.75;2.90;;;2.40;99.90;;;;;;476183;250;27532;-74
2021/12/07 06:48:32;;;;;;;7.93;3.53;;;2.40;99.90;;;;;;476163;250;27532;-73
2021/12/07 06:50:33;;;;;;;6.62;3.08;;;2.40;99.90;;;;;;476151;250;27516;-74
2021/12/07 06:52:34;;;;;;;7.65;3.87;;;2.50;99.90;;;;;;476138;250;27533;-74
2021/12/07 06:54:36;;;;;;;6.05;3.37;;;2.50;99.90;;;;;;476186;250;27589;-74
2021/12/07 06:56:37;;;;;;;7.25;3.58;;;2.40;99.90;;;;;;476173;250;27492;-74
2021/12/07 06:58:38;;;;;;;7.37;3.35;;;2.40;99.90;;;;;;476168;250;27546;-74
2021/12/07 07:00:39;;;;;;;6.20;3.47;;;2.40;99.90;;;;;;476160;250;27501;-73
2021/12/07 07:02:40;;;;;;;5.35;3.10;;;2.40;99.90;;;;;;476163;250;28574;-75
2021/12/07 07:04:42;;;;;;;4.72;3.30;;;2.40;99.90;;;;;;476168;250;28085;-74
2021/12/07 07:06:43;;;;;;;4.97;2.65;;;2.40;99.90;;;;;;476179;250;27936;-74
2021/12/07 07:08:44;;;;;;;5.03;3.35;;;2.30;99.90;;;;;;476146;250;27999;-74
2021/12/07 07:10:46;;;;;;;4.53;3.10;;;2.30;99.90;;;;;;476142;250;27829;-74
2021/12/07 07:12:47;;;;;;;5.43;3.15;;;2.30;99.90;;;;;;476188;250;27511;-74
2021/12/07 07:14:48;;;;;;;3.90;2.80;;;2.30;99.90;;;;;;476180;250;27596;-74
2021/12/07 07:16:49;;;;;;;4.80;3.12;;;2.30;99.90;;;;;;476143;250;27490;-74
2021/12/07 07:18:50;;;;;;;6.72;3.17;;;2.30;99.90;;;;;;476136;250;27531;-74
2021/12/07 07:20:52;;;;;;;6.72;3.05;;;2.30;99.90;;;;;;476166;250;27608;-73
2021/12/07 07:22:53;;;;;;;10.80;2.85;;;2.20;99.90;;;;;;476161;250;27616;-74
2021/12/07 07:24:54;;;;;;;5.87;2.85;;;2.20;99.90;;;;;;476160;250;27567;-74
2021/12/07 07:26:55;;;;;;;5.50;2.97;;;2.10;99.90;;;;;;476150;250;27632;-74
2021/12/07 07:28:57;;;;;;;4.25;3.40;;;2.10;99.90;;;;;;476135;250;27603;-73
2021/12/07 07:30:58;;;;;;;9.02;4.30;;;2.10;99.90;;;;;;476164;250;28443;-74
2021/12/07 07:32:59;;;;;;;4.95;3.50;;;2.00;99.90;;;;;;476180;250;27978;-74
2021/12/07 07:35:00;;;;;;;11.93;3.55;;;2.00;99.90;;;;;;476183;250;28043;-74
2021/12/07 07:37:02;;;;;;;7.00;3.58;;;1.90;99.90;;;;;;476162;250;27686;-74
2021/12/07 07:39:03;;;;;;;5.55;3.15;;;1.90;99.90;;;;;;476155;250;27609;-74
2021/12/07 07:41:04;;;;;;;3.42;2.85;;;1.90;99.90;;;;;;476160;250;27555;-74
2021/12/07 07:43:05;;;;;;;6.28;2.87;;;1.90;99.90;;;;;;476176;250;27572;-73
2021/12/07 07:45:07;;;;;;;5.50;3.70;;;2.00;99.90;;;;;;476171;250;27557;-74
2021/12/07 07:47:08;;;;;;;9.63;2.87;;;2.10;99.90;;;;;;476110;250;27527;-74
2021/12/07 07:49:09;;;;;;;5.75;2.85;;;2.10;99.90;;;;;;476139;250;27552;-73
2021/12/07 07:51:12;;;;;;;5.45;2.87;;;2.10;99.90;;;;;;476175;250;27580;-74
2021/12/07 07:53:13;;;;;;;6.62;2.70;;;2.10;99.90;;;;;;476134;250;27573;-74
2021/12/07 07:55:14;;;;;;;8.88;3.42;;;2.10;99.90;;;;;;476171;250;27502;-75
2021/12/07 07:57:16;;;;;;;11.73;5.47;;;2.10;99.90;;;;;;476173;250;27538;-74
2021/12/07 07:59:17;;;;;;;14.55;4.40;;;2.10;99.90;;;;;;476158;250;27537;-74
2021/12/07 08:01:18;;;;;;;7.82;4.00;;;2.10;99.90;;;;;;476157;250;27923;-74
2021/12/07 08:03:19;;;;;;;7.72;3.65;;;2.00;99.90;;;;;;476149;250;28247;-75
2021/12/07 08:05:21;;;;;;;5.07;3.62;;;2.00;99.90;;;;;;476179;250;27639;-74
2021/12/07 08:07:22;;;;;;;4.28;3.60;;;2.00;99.90;;;;;;476150;250;27496;-74
2021/12/07 08:09:23;;;;;;;6.57;3.72;;;2.00;99.90;;;;;;476162;250;27635;-73
2021/12/07 08:11:24;;;;;;;9.13;3.33;;;2.00;99.90;;;;;;476144;250;27605;-74
2021/12/07 08:13:26;;;;;;;5.00;3.25;;;2.00;99.90;;;;;;476167;250;27574;-74
2021/12/07 08:15:27;;;;;;;6.37;3.97;;;2.00;99.90;;;;;;476174;250;27624;-73
2021/12/07 08:17:28;;;;;;;9.75;4.07;;;2.00;99.90;;;;;;476168;250;27513;-74
2021/12/07 08:19:29;;;;;;;7.55;3.30;;;2.00;99.90;;;;;;476175;250;27532;-75
2021/12/07 08:21:31;;;;;;;6.18;3.10;;;2.00;99.90;;;;;;476141;250;27496;-74
2021/12/07 08:23:32;;;;;;;5.40;3.78;;;2.00;99.90;;;;;;476162;250;27556;-74
2021/12/07 08:25:33;;;;;;;4.40;2.97;;;2.10;99.90;;;;;;476208;250;27995;-74
2021/12/07 08:27:34;;;;;;;6.40;3.30;;;2.10;99.90;;;;;;476183;250;27937;-73
2021/12/07 08:29:36;;;;;;;9.10;3.60;;;2.10;99.90;;;;;;476180;250;28098;-74
2021/12/07 08:31:37;;;;;;;5.78;3.03;;;2.10;99.90;;;;;;476140;250;27972;-74
2021/12/07 08:33:38;;;;;;;3.95;2.90;;;2.10;99.90;;;;;;476143;250;27661;-74
2021/12/07 08:35:39;;;;;;;7.57;3.30;;;2.20;99.90;;;;;;476148;250;27623;-74
2021/12/07 08:37:41;;;;;;;5.37;3.05;;;2.20;99.90;;;;;;476160;250;27531;-73
2021/12/07 08:39:43;;;;;;;8.45;3.72;;;2.20;99.90;;;;;;476149;250;27534;-74
2021/12/07 08:41:44;;;;;;;4.65;3.92;;;2.30;99.90;;;;;;476168;250;27556;-75
2021/12/07 08:43:45;;;;;;;6.30;4.03;;;2.40;99.90;;;;;;476187;250;27533;-74
2021/12/07 08:45:47;;;;;;;10.75;4.15;;;2.40;99.90;;;;;;476164;249;28048;-74
2021/12/07 08:47:48;;;;;;;11.45;3.58;;;2.40;99.90;;;;;;476200;250;27987;-73
2021/12/07 08:49:50;;;;;;;6.75;3.25;;;2.40;99.90;;;;;;476185;250;29052;-74
2021/12/07 08:51:50;;;;;;;5.28;3.30;;;2.50;99.90;;;;;;476125;250;28147;-74
2021/12/07 08:53:58;;;;;;;7.87;3.70;;;2.50;99.90;;;;;;476188;250;27576;-74
2021/12/07 09:00:32;;;;;;;5.05;3.35;;;2.50;99.90;;;;;;472728;251;27465;-74
2021/12/07 09:02:33;;;;;;;4.72;3.05;;;2.50;99.90;;;;;;472727;251;27507;-74
2021/12/07 09:04:34;;;;;;;3.05;2.55;;;2.50;99.90;;;;;;472743;251;27571;-74
2021/12/07 09:06:37;;;;;;;8.85;3.97;;;2.50;99.90;;;;;;475194;250;27666;-74
2021/12/07 09:08:37;;;;;;;2.95;2.75;;;2.50;99.90;;;;;;476041;250;27567;-75
2021/12/07 09:10:38;;;;;;;4.32;3.00;;;2.50;99.90;;;;;;476167;250;27568;-74
2021/12/07 09:12:39;;;;;;;7.22;3.00;;;2.50;99.90;;;;;;476164;250;27970;-74
2021/12/07 09:14:42;;;;;;;3.25;2.50;;;2.50;99.90;;;;;;476136;250;27980;-74
2021/12/07 09:16:42;;;;;;;7.10;3.47;;;2.50;99.90;;;;;;476081;250;27950;-74
2021/12/07 09:18:43;;;;;;;8.45;3.22;;;2.60;99.90;;;;;;476152;250;28004;-74
2021/12/07 09:20:44;;;;;;;3.70;3.00;;;2.70;99.90;;;;;;476169;250;28102;-74
2021/12/07 09:22:45;;;;;;;8.07;3.20;;;2.80;99.90;;;;;;476168;250;27649;-74
2021/12/07 09:24:47;;;;;;;3.83;2.85;;;2.90;99.90;;;;;;476148;250;27698;-74
2021/12/07 09:26:48;;;;;;;5.90;2.70;;;2.90;99.90;;;;;;476147;250;27495;-74
2021/12/07 09:28:49;;;;;;;2.70;1.77;;;2.90;99.90;;;;;;476170;250;27621;-74
2021/12/07 09:30:53;;;;;;;2.97;2.62;;;3.00;99.90;;;;;;476196;250;27552;-74
2021/12/07 09:32:55;;;;;;;5.85;2.87;;;3.10;99.90;;;;;;476172;250;27549;-74
2021/12/07 09:34:56;;;;;;;7.82;2.70;;;3.20;99.90;;;;;;476170;250;27556;-75
2021/12/07 09:36:57;;;;;;;4.87;2.72;;;3.20;99.90;;;;;;476148;250;27544;-74
2021/12/07 09:38:58;;;;;;;8.15;3.60;;;3.20;99.90;;;;;;476150;250;27597;-74
2021/12/07 09:41:00;;;;;;;6.05;2.40;;;3.20;99.90;;;;;;476207;250;27575;-74
2021/12/07 09:43:01;;;;;;;5.32;2.50;;;3.20;99.90;;;;;;476188;250;27666;-75
2021/12/07 09:45:02;;;;;;;6.05;2.65;;;3.20;99.90;;;;;;476165;250;27513;-74
2021/12/07 09:47:03;;;;;;;7.97;2.65;;;3.20;99.90;;;;;;476172;250;27607;-74
2021/12/07 09:49:05;;;;;;;7.10;2.75;;;3.30;99.90;;;;;;476169;250;27654;-74
2021/12/07 09:51:06;;;;;;;5.85;2.67;;;3.40;99.90;;;;;;476178;250;27536;-75
2021/12/07 09:53:07;;;;;;;8.27;3.65;;;3.60;99.90;;;;;;476164;250;28101;-74
2021/12/07 09:55:08;;;;;;;10.10;3.30;;;3.70;99.90;;;;;;476160;250;28049;-74
2021/12/07 09:57:11;;;;;;;4.22;2.87;;;3.70;99.90;;;;;;476176;250;29174;-74
2021/12/07 09:59:11;;;;;;;4.53;2.25;;;3.80;99.90;;;;;;476097;250;27523;-74
2021/12/07 10:01:12;;;;;;;4.40;3.00;;;3.80;99.90;;;;;;476192;250;27482;-75
2021/12/07 10:03:15;;;;;;;6.35;3.00;;;3.90;99.90;;;;;;476176;250;27536;-74
2021/12/07 10:05:17;;;;;;;8.07;2.28;;;4.10;99.90;;;;;;476117;250;27591;-74
2021/12/07 10:07:17;;;;;;;3.92;2.80;;;4.20;99.90;;;;;;476094;250;27557;-74
2021/12/07 10:09:17;;;;;;;5.78;2.53;;;4.20;99.90;;;;;;476145;250;27564;-74
2021/12/07 10:11:18;;;;;;;8.00;2.62;;;4.10;99.90;;;;;;476147;250;27668;-77
2021/12/07 10:13:21;;;;;;;4.97;2.70;;;3.90;99.90;;;;;;476180;250;27551;-76
2021/12/07 10:15:21;;;;;;;8.88;2.83;;;3.80;99.90;;;;;;476159;250;27502;-76
2021/12/07 10:17:22;;;;;;;5.57;3.30;;;3.70;99.90;;;;;;476203;250;27977;-76
2021/12/07 10:19:23;;;;;;;4.85;2.80;;;3.60;99.90;;;;;;476203;250;28081;-76
2021/12/07 10:21:26;;;;;;;3.60;2.35;;;3.60;99.90;;;;;;476169;250;28034;-75
2021/12/07 10:23:26;;;;;;;9.30;3.15;;;3.60;99.90;;;;;;476174;250;28071;-76
2021/12/07 10:25:27;;;;;;;6.28;2.92;;;3.60;99.90;;;;;;476222;250;27583;-76
2021/12/07 10:27:28;;;;;;;6.57;2.50;;;3.60;99.90;;;;;;476182;250;27616;-73
2021/12/07 10:29:30;;;;;;;4.10;2.90;;;3.70;99.90;;;;;;476152;250;27488;-73
2021/12/07 10:31:31;;;;;;;4.07;2.42;;;3.70;99.90;;;;;;476108;250;27627;-73
2021/12/07 10:33:32;;;;;;;4.50;2.60;;;3.70;99.90;;;;;;476191;250;27591;-74
2021/12/07 10:35:33;;;;;;;5.20;2.45;;;3.90;99.90;;;;;;476360;250;27508;-76
2021/12/07 10:37:35;;;;;;;2.53;2.33;;;3.80;99.90;;;;;;476399;250;27695;-75
2021/12/07 10:39:36;;;;;;;3.50;2.67;;;3.90;99.90;;;;;;476200;250;27553;-74
2021/12/07 10:41:37;;;;;;;6.43;2.70;;;3.90;99.90;;;;;;476196;250;27540;-74
2021/12/07 10:43:38;;;;;;;3.10;2.20;;;3.80;99.90;;;;;;476334;250;27596;-77
2021/12/07 10:45:40;;;;;;;3.65;2.30;;;3.70;99.90;;;;;;476140;250;28094;-73
2021/12/07 10:47:41;;;;;;;3.90;2.42;;;3.70;99.90;;;;;;476139;250;28039;-73
2021/12/07 10:49:46;;;;;;;4.57;2.45;;;3.60;99.90;;;;;;476128;250;27956;-74
2021/12/07 10:51:47;;;;;;;2.87;2.47;;;3.60;99.90;;;;;;476097;250;28022;-74
2021/12/07 10:53:48;;;;;;;5.05;2.75;;;3.60;99.90;;;;;;476138;250;27942;-74
2021/12/07 10:55:49;;;;;;;10.25;2.60;;;3.70;99.90;;;;;;476155;250;27536;-73
2021/12/07 10:57:51;;;;;;;2.83;2.40;;;3.70;99.90;;;;;;476153;250;27578;-74
2021/12/07 10:59:53;;;;;;;4.87;3.05;;;3.80;99.90;;;;;;476192;250;27559;-74
2021/12/07 11:01:53;;;;;;;4.45;2.55;;;3.90;99.90;;;;;;476203;250;27502;-74
2021/12/07 11:03:54;;;;;;;7.07;2.70;;;4.00;99.90;;;;;;476235;250;27548;-74
2021/12/07 11:05:55;;;;;;;4.82;2.33;;;4.00;99.90;;;;;;476218;250;27599;-74
2021/12/07 11:07:58;;;;;;;4.20;2.55;;;3.90;99.90;;;;;;476164;250;27537;-74
2021/12/07 11:10:03;;;;;;;5.97;2.87;;;3.90;99.90;;;;;;476143;250;27571;-74
2021/12/07 11:11:59;;;;;;;3.15;2.65;;;3.90;99.90;;;;;;475868;250;27500;-73
2021/12/07 11:14:00;;;;;;;7.20;2.60;;;4.00;99.90;;;;;;476155;250;28109;-73
2021/12/07 11:16:02;;;;;;;2.55;2.35;;;4.00;99.90;;;;;;476147;250;28236;-74
2021/12/07 11:18:03;;;;;;;3.37;3.05;;;4.10;99.90;;;;;;476124;250;27500;-74
2021/12/07 11:20:04;;;;;;;4.10;3.10;;;4.20;99.90;;;;;;476174;250;27637;-76
2021/12/07 11:22:05;;;;;;;6.78;2.92;;;4.20;99.90;;;;;;476199;250;27563;-77
2021/12/07 11:24:07;;;;;;;3.67;3.00;;;4.10;99.90;;;;;;476188;250;27679;-77
2021/12/07 11:30:19;;;;;;;5.15;2.80;;;4.30;99.90;;;;;;472705;251;27429;-74
2021/12/07 11:32:21;;;;;;;9.88;3.30;;;4.40;99.90;;;;;;475312;250;27527;-74
2021/12/07 11:34:22;;;;;;;7.53;3.20;;;4.30;99.90;;;;;;476177;250;27502;-74
2021/12/07 11:36:23;;;;;;;6.40;3.17;;;4.20;99.90;;;;;;476162;250;28029;-73
2021/12/07 11:38:24;;;;;;;8.43;3.50;;;4.10;99.90;;;;;;476153;250;28724;-74
2021/12/07 11:40:26;;;;;;;5.03;3.08;;;4.00;99.90;;;;;;476173;250;28043;-76
2021/12/07 11:42:27;;;;;;;3.47;3.15;;;3.90;99.90;;;;;;476184;250;27547;-76
2021/12/07 11:44:28;;;;;;;4.10;3.42;;;3.90;99.90;;;;;;476163;250;27581;-76
2021/12/07 11:46:29;;;;;;;4.62;3.25;;;3.80;99.90;;;;;;476144;249;27534;-73
2021/12/07 11:48:31;;;;;;;6.03;3.22;;;4.00;99.90;;;;;;476150;250;27500;-74
2021/12/07 11:50:32;;;;;;;6.57;2.80;;;4.10;99.90;;;;;;476182;250;27592;-74
2021/12/07 11:52:33;;;;;;;8.02;3.45;;;4.20;99.90;;;;;;476149;250;27542;-74
2021/12/07 11:54:34;;;;;;;6.75;2.90;;;4.20;99.90;;;;;;476157;250;27500;-73
2021/12/07 11:56:36;;;;;;;9.75;3.00;;;4.20;99.90;;;;;;476173;250;27529;-74
2021/12/07 11:58:37;;;;;;;13.73;3.17;;;4.30;99.90;;;;;;476141;250;27632;-74
2021/12/07 12:00:38;;;;;;;13.55;3.50;;;4.50;99.90;;;;;;476141;250;27617;-74
2021/12/07 12:02:39;;;;;;;4.68;2.70;;;4.60;99.90;;;;;;476151;250;28039;-73
2021/12/07 12:04:42;;;;;;;7.50;3.12;;;4.60;99.90;;;;;;476142;250;29212;-74
2021/12/07 12:06:43;;;;;;;7.97;2.85;;;4.60;99.90;;;;;;476125;250;28210;-74
2021/12/07 12:08:43;;;;;;;4.55;3.05;;;4.50;99.90;;;;;;476123;250;27576;-74
2021/12/07 12:10:44;;;;;;;6.12;3.22;;;4.40;99.90;;;;;;476162;250;27505;-74